createdAt,value
2023-03-22T00:01:34.917Z,66.94
2023-03-22T00:04:02.486Z,67.11
2023-03-22T00:06:30.079Z,66.78
2023-03-22T00:08:57.550Z,66.81
2023-03-22T00:11:25.930Z,66.96
2023-03-22T00:13:55.033Z,67.11
2023-03-22T00:16:22.830Z,67.41
2023-03-22T00:18:50.464Z,67.28
2023-03-22T00:21:18.252Z,67.53
2023-03-22T00:23:46.066Z,67.41
2023-03-22T00:26:14.663Z,67.57
2023-03-22T00:28:43.841Z,67.42
2023-03-22T00:31:11.498Z,67.79
2023-03-22T00:33:39.053Z,67.65
2023-03-22T00:36:09.177Z,67.62
2023-03-22T00:38:42.869Z,67.66
2023-03-22T00:41:16.306Z,67.84
2023-03-22T00:43:47.136Z,67.71
2023-03-22T00:46:16.101Z,67.78
2023-03-22T00:48:44.360Z,67.51
2023-03-22T00:51:12.531Z,67.62
2023-03-22T00:53:43.090Z,67.21
2023-03-22T00:56:15.980Z,67.75
2023-03-22T00:59:06.404Z,67.08
2023-03-22T01:01:34.027Z,67.42
2023-03-22T01:04:03.502Z,67.23
2023-03-22T01:06:32.834Z,67.25
2023-03-22T01:09:00.641Z,67.23
2023-03-22T01:11:28.616Z,67.42
2023-03-22T01:13:56.143Z,67.36
2023-03-22T01:16:23.863Z,67.45
2023-03-22T01:18:51.497Z,67.43
2023-03-22T01:21:19.066Z,67.74
2023-03-22T01:23:47.263Z,67.73
2023-03-22T01:26:14.857Z,68.02
2023-03-22T01:28:42.563Z,68.16
2023-03-22T01:31:10.162Z,68.29
2023-03-22T01:33:38.014Z,68.21
2023-03-22T01:36:06.063Z,68.73
2023-03-22T01:38:35.235Z,68.64
2023-03-22T01:41:03.024Z,68.39
2023-03-22T01:43:34.124Z,68.79
2023-03-22T01:46:02.294Z,68.37
2023-03-22T01:48:46.315Z,69.41
2023-03-22T01:51:25.371Z,69.01
2023-03-22T01:54:21.019Z,68.72
2023-03-22T01:56:50.349Z,68.62
2023-03-22T01:59:28.952Z,68.52
2023-03-22T02:02:22.220Z,68.74
2023-03-22T02:04:58.240Z,68.75
2023-03-22T02:07:31.891Z,68.84
2023-03-22T02:10:01.819Z,68.85
2023-03-22T02:13:09.555Z,70.00
2023-03-22T02:15:49.651Z,68.64
2023-03-22T02:19:05.578Z,69.63
2023-03-22T02:21:57.166Z,69.36
2023-03-22T02:25:06.342Z,69.76
2023-03-22T02:27:58.629Z,69.10
2023-03-22T02:30:57.390Z,69.46
2023-03-22T02:33:35.910Z,68.24
2023-03-22T02:36:37.975Z,69.10
2023-03-22T02:39:20.132Z,68.53
2023-03-22T02:41:53.728Z,67.94
2023-03-22T02:44:43.422Z,68.82
2023-03-22T02:47:24.825Z,68.70
2023-03-22T02:50:07.416Z,67.64
2023-03-22T02:52:54.431Z,68.61
2023-03-22T02:55:39.043Z,68.50
2023-03-22T02:58:19.002Z,68.73
2023-03-22T03:00:51.160Z,68.17
2023-03-22T03:03:21.203Z,68.13
2023-03-22T03:05:55.686Z,68.51
2023-03-22T03:08:25.428Z,68.52
2023-03-22T03:10:53.933Z,68.32
2023-03-22T03:13:21.874Z,68.82
2023-03-22T03:15:54.513Z,69.21
2023-03-22T03:18:46.362Z,70.37
2023-03-22T03:21:17.167Z,68.71
2023-03-22T03:24:07.056Z,69.40
2023-03-22T03:26:58.782Z,70.17
2023-03-22T03:30:01.471Z,70.11
2023-03-22T03:32:48.177Z,69.90
2023-03-22T03:35:57.370Z,70.06
2023-03-22T03:38:27.610Z,69.89
2023-03-22T03:41:05.122Z,68.83
2023-03-22T03:43:34.543Z,68.72
2023-03-22T03:46:02.575Z,68.87
2023-03-22T03:48:33.482Z,69.08
2023-03-22T03:51:02.577Z,68.76
2023-03-22T03:53:31.105Z,68.79
2023-03-22T03:55:59.024Z,68.81
2023-03-22T03:58:32.956Z,68.63
2023-03-22T04:01:00.593Z,68.55
2023-03-22T04:03:50.842Z,68.20
2023-03-22T04:06:34.796Z,68.26
2023-03-22T04:09:09.010Z,68.36
2023-03-22T04:11:41.400Z,68.01
2023-03-22T04:14:09.136Z,68.37
2023-03-22T04:16:36.664Z,68.33
2023-03-22T04:19:04.946Z,68.04
2023-03-22T04:21:33.057Z,67.79
2023-03-22T04:24:02.430Z,68.09
2023-03-22T04:26:35.577Z,67.94
2023-03-22T04:29:26.522Z,67.75
2023-03-22T04:31:59.876Z,67.99
2023-03-22T04:34:37.250Z,67.62
2023-03-22T04:37:10.295Z,67.36
2023-03-22T04:39:44.747Z,67.50
2023-03-22T04:42:30.990Z,67.51
2023-03-22T04:45:07.437Z,67.48
2023-03-22T04:47:37.394Z,67.28
2023-03-22T04:50:08.109Z,67.11
2023-03-22T04:52:43.030Z,66.87
2023-03-22T04:55:11.355Z,67.08
2023-03-22T04:57:39.931Z,66.97
2023-03-22T05:00:11.058Z,66.50
2023-03-22T05:02:41.482Z,66.81
2023-03-22T05:05:16.565Z,66.68
2023-03-22T05:07:45.436Z,66.20
2023-03-22T05:10:15.034Z,66.65
2023-03-22T05:12:44.189Z,66.30
2023-03-22T05:15:22.299Z,66.12
2023-03-22T05:17:51.895Z,65.95
2023-03-22T05:20:22.451Z,65.72
2023-03-22T05:23:02.836Z,65.72
2023-03-22T05:25:32.612Z,65.58
2023-03-22T05:28:01.762Z,65.18
2023-03-22T05:30:37.548Z,65.02
2023-03-22T05:33:23.663Z,64.65
2023-03-22T05:35:55.168Z,64.46
2023-03-22T05:38:23.400Z,64.55
2023-03-22T05:40:53.641Z,64.01
2023-03-22T05:43:21.493Z,64.11
2023-03-22T05:45:51.473Z,63.62
2023-03-22T05:48:39.192Z,63.80
2023-03-22T05:51:17.620Z,63.33
2023-03-22T05:53:48.649Z,63.17
2023-03-22T05:56:24.405Z,63.12
2023-03-22T05:58:59.928Z,62.72
2023-03-22T06:01:27.636Z,62.97
2023-03-22T06:04:11.067Z,62.92
2023-03-22T06:06:53.975Z,62.46
2023-03-22T06:09:34.954Z,62.51
2023-03-22T06:12:05.965Z,62.09
2023-03-22T06:14:33.541Z,62.08
2023-03-22T06:17:09.916Z,62.06
2023-03-22T06:19:37.515Z,61.53
2023-03-22T06:22:09.183Z,61.75
2023-03-22T06:24:40.655Z,61.22
2023-03-22T06:27:10.961Z,61.27
2023-03-22T06:29:41.201Z,60.98
2023-03-22T06:32:09.317Z,60.51
2023-03-22T06:34:37.116Z,60.15
2023-03-22T06:37:05.765Z,60.24
2023-03-22T06:39:37.295Z,59.45
2023-03-22T06:42:04.904Z,58.65
2023-03-22T06:44:33.206Z,58.23
2023-03-22T06:47:13.792Z,57.77
2023-03-22T06:49:59.965Z,57.06
2023-03-22T06:52:40.654Z,56.34
2023-03-22T06:55:09.499Z,55.14
2023-03-22T06:57:37.152Z,53.37
2023-03-22T07:00:05.420Z,50.62
2023-03-22T07:02:33.195Z,48.01
2023-03-22T07:05:29.327Z,46.39
2023-03-22T07:07:57.235Z,45.56
2023-03-22T07:10:26.869Z,45.27
2023-03-22T07:12:54.530Z,43.91
2023-03-22T07:15:24.826Z,42.50
2023-03-22T07:18:04.230Z,41.04
2023-03-22T07:20:37.157Z,39.40
2023-03-22T07:23:06.152Z,38.27
2023-03-22T07:25:40.534Z,36.67
2023-03-22T07:28:29.475Z,35.66
2023-03-22T07:31:06.186Z,34.13
2023-03-22T07:33:44.711Z,35.15
2023-03-22T07:36:12.987Z,34.21
2023-03-22T07:38:40.622Z,33.12
2023-03-22T07:41:13.443Z,32.02
2023-03-22T07:44:18.062Z,32.16
2023-03-22T07:47:09.327Z,33.05
2023-03-22T07:49:57.050Z,34.43
2023-03-22T07:52:31.556Z,35.63
2023-03-22T07:54:59.405Z,36.36
2023-03-22T07:57:27.066Z,37.07
2023-03-22T07:59:58.972Z,37.70
2023-03-22T08:02:46.209Z,38.26
2023-03-22T08:06:04.901Z,39.16
2023-03-22T08:08:38.623Z,39.67
2023-03-22T08:11:07.850Z,40.26
2023-03-22T08:13:36.319Z,40.75
2023-03-22T08:16:04.983Z,40.97
2023-03-22T08:18:33.106Z,41.57
2023-03-22T08:21:01.032Z,41.29
2023-03-22T08:23:41.436Z,41.25
2023-03-22T08:26:29.579Z,40.74
2023-03-22T08:29:03.643Z,40.59
2023-03-22T08:31:34.757Z,41.06
2023-03-22T08:34:02.245Z,41.25
2023-03-22T08:36:29.817Z,41.53
2023-03-22T08:39:01.666Z,41.60
2023-03-22T08:41:51.831Z,41.85
2023-03-22T08:44:19.441Z,42.10
2023-03-22T08:46:47.106Z,42.25
2023-03-22T08:49:15.146Z,42.77
2023-03-22T08:51:48.836Z,42.74
2023-03-22T08:54:19.678Z,42.73
2023-03-22T08:56:53.155Z,42.60
2023-03-22T08:59:46.691Z,42.28
2023-03-22T09:02:35.780Z,41.53
2023-03-22T09:05:04.503Z,40.85
2023-03-22T09:07:32.797Z,41.05
2023-03-22T09:10:08.880Z,40.60
2023-03-22T09:12:39.916Z,40.33
2023-03-22T09:15:08.540Z,39.80
2023-03-22T09:17:38.727Z,39.41
2023-03-22T09:20:12.811Z,38.92
2023-03-22T09:22:43.070Z,37.76
2023-03-22T09:25:13.551Z,35.74
2023-03-22T09:27:44.143Z,33.19
2023-03-22T09:30:11.988Z,31.28
2023-03-22T09:32:42.127Z,30.26
2023-03-22T09:35:12.403Z,28.24
2023-03-22T09:37:53.451Z,26.47
2023-03-22T09:40:32.951Z,24.46
2023-03-22T09:43:06.198Z,24.92
2023-03-22T09:45:39.730Z,26.86
2023-03-22T09:48:21.213Z,27.34
2023-03-22T09:50:52.589Z,26.92
2023-03-22T09:53:22.711Z,27.61
2023-03-22T09:56:11.051Z,29.22
2023-03-22T09:58:50.495Z,31.09
2023-03-22T10:01:31.557Z,33.25
2023-03-22T10:04:13.405Z,34.97
2023-03-22T10:06:49.371Z,35.95
2023-03-22T10:09:54.908Z,37.25
2023-03-22T10:12:30.573Z,38.01
2023-03-22T10:15:03.912Z,39.04
2023-03-22T10:17:31.870Z,39.14
2023-03-22T10:20:05.498Z,40.20
2023-03-22T10:22:39.068Z,40.41
2023-03-22T10:25:09.707Z,40.62
2023-03-22T10:27:37.721Z,40.52
2023-03-22T10:30:25.436Z,40.66
2023-03-22T10:32:58.374Z,41.28
2023-03-22T10:35:26.495Z,38.07
2023-03-22T10:37:58.096Z,36.06
2023-03-22T10:40:36.461Z,34.34
2023-03-22T10:43:13.107Z,33.44
2023-03-22T10:45:41.582Z,33.37
2023-03-22T10:48:19.604Z,33.44
2023-03-22T10:50:48.474Z,33.97
2023-03-22T10:53:28.919Z,34.99
2023-03-22T10:55:56.744Z,36.01
2023-03-22T10:58:31.533Z,37.01
2023-03-22T11:01:05.375Z,37.77
2023-03-22T11:03:38.484Z,38.86
2023-03-22T11:06:18.061Z,38.82
2023-03-22T11:08:52.885Z,39.98
2023-03-22T11:11:24.934Z,40.00
2023-03-22T11:14:11.997Z,40.16
2023-03-22T11:16:53.284Z,40.45
2023-03-22T11:19:42.407Z,40.43
2023-03-22T11:22:42.581Z,40.80
2023-03-22T11:25:27.117Z,40.64
2023-03-22T11:28:06.426Z,41.12
2023-03-22T11:30:36.108Z,40.93
2023-03-22T11:33:19.729Z,42.11
2023-03-22T11:35:54.273Z,41.93
2023-03-22T11:38:30.758Z,42.79
2023-03-22T11:41:04.942Z,42.96
2023-03-22T11:43:48.526Z,42.83
2023-03-22T11:46:19.486Z,43.94
2023-03-22T11:48:50.610Z,44.80
2023-03-22T11:51:35.227Z,45.86
2023-03-22T11:54:19.542Z,46.83
2023-03-22T11:56:49.183Z,46.13
2023-03-22T11:59:24.354Z,47.17
2023-03-22T12:02:21.770Z,47.26
2023-03-22T12:04:53.951Z,46.61
2023-03-22T12:07:24.694Z,46.70
2023-03-22T12:10:02.045Z,47.28
2023-03-22T12:12:40.477Z,46.40
2023-03-22T12:15:19.888Z,46.08
2023-03-22T12:17:56.670Z,45.30
2023-03-22T12:20:56.457Z,45.70
2023-03-22T12:23:28.129Z,44.78
2023-03-22T12:26:13.113Z,45.37
2023-03-22T12:28:50.131Z,44.88
2023-03-22T12:31:31.856Z,45.18
2023-03-22T12:34:19.606Z,44.62
2023-03-22T12:36:53.521Z,43.42
2023-03-22T12:39:46.333Z,43.29
2023-03-22T12:42:22.104Z,43.58
2023-03-22T12:45:04.181Z,43.53
2023-03-22T12:47:41.910Z,44.64
2023-03-22T12:50:40.994Z,45.63
2023-03-22T12:53:16.488Z,45.94
2023-03-22T12:55:46.866Z,46.16
2023-03-22T12:58:25.944Z,47.28
2023-03-22T13:01:08.101Z,47.53
2023-03-22T13:03:40.347Z,47.91
2023-03-22T13:06:31.200Z,49.03
2023-03-22T13:09:08.960Z,49.02
2023-03-22T13:11:36.790Z,48.21
2023-03-22T13:14:04.357Z,48.00
2023-03-22T13:16:52.088Z,48.52
2023-03-22T13:19:45.548Z,47.71
2023-03-22T13:22:22.031Z,46.21
2023-03-22T13:25:01.426Z,46.55
2023-03-22T13:27:38.074Z,46.87
2023-03-22T13:30:15.426Z,46.89
2023-03-22T13:33:14.522Z,47.75
2023-03-22T13:35:55.172Z,47.71
2023-03-22T13:38:27.733Z,47.25
2023-03-22T13:41:09.216Z,47.66
2023-03-22T13:43:50.488Z,46.98
2023-03-22T13:46:19.974Z,46.57
2023-03-22T13:48:48.405Z,46.00
2023-03-22T13:51:22.649Z,45.71
2023-03-22T13:53:53.255Z,45.45
2023-03-22T13:56:42.228Z,44.65
2023-03-22T13:59:28.034Z,44.63
2023-03-22T14:02:18.570Z,44.52
2023-03-22T14:04:58.740Z,44.17
2023-03-22T14:07:26.276Z,44.44
2023-03-22T14:09:57.923Z,44.28
2023-03-22T14:12:36.724Z,44.56
2023-03-22T14:15:21.637Z,44.76
